createdAt,value
2022-10-18T00:05:05.887Z,2.87
2022-10-18T00:08:04.324Z,3.03
2022-10-18T00:10:37.028Z,3.00
2022-10-18T00:14:15.650Z,3.60
2022-10-18T00:17:05.593Z,3.40
2022-10-18T00:20:02.083Z,2.93
2022-10-18T00:22:46.367Z,2.90
2022-10-18T00:25:34.025Z,3.20
2022-10-18T00:31:55.688Z,3.10
2022-10-18T00:34:24.120Z,2.80
2022-10-18T00:37:15.013Z,3.30
2022-10-18T00:39:47.287Z,3.37
2022-10-18T00:42:44.905Z,3.50
2022-10-18T00:48:11.442Z,3.43
2022-10-18T00:50:39.264Z,4.10
2022-10-18T00:53:10.006Z,3.13
2022-10-18T00:55:37.778Z,3.10
2022-10-18T00:58:06.229Z,2.80
2022-10-18T01:00:38.631Z,3.20
2022-10-18T01:03:06.793Z,3.20
2022-10-18T01:05:36.686Z,2.77
2022-10-18T01:08:18.036Z,2.77
2022-10-18T01:10:53.215Z,3.43
2022-10-18T01:13:28.968Z,3.17
2022-10-18T01:15:59.582Z,3.13
2022-10-18T01:18:30.252Z,3.07
2022-10-18T01:21:10.856Z,3.33
2022-10-18T01:23:50.365Z,3.53
2022-10-18T01:26:25.681Z,3.07
2022-10-18T01:28:58.380Z,3.00
2022-10-18T01:31:28.779Z,2.97
2022-10-18T01:33:58.288Z,3.43
2022-10-18T01:36:28.586Z,3.90
2022-10-18T01:38:58.198Z,3.37
2022-10-18T01:41:26.044Z,4.23
2022-10-18T01:44:31.062Z,4.63
2022-10-18T01:47:02.499Z,4.17
2022-10-18T01:49:30.172Z,4.00
2022-10-18T01:51:58.304Z,4.90
2022-10-18T01:54:29.023Z,4.03
2022-10-18T01:56:59.411Z,4.30
2022-10-18T01:59:47.946Z,4.07
2022-10-18T02:07:34.997Z,5.77
2022-10-18T02:10:07.035Z,5.67
2022-10-18T02:12:35.771Z,5.27
2022-10-18T02:15:03.428Z,5.00
2022-10-18T02:17:31.344Z,5.27
2022-10-18T02:19:58.934Z,5.27
2022-10-18T02:22:27.707Z,4.70
2022-10-18T02:24:57.486Z,4.83
2022-10-18T02:27:25.042Z,5.20
2022-10-18T02:29:52.838Z,5.07
2022-10-18T02:32:22.165Z,4.90
2022-10-18T02:34:52.519Z,5.77
2022-10-18T02:37:20.202Z,6.47
2022-10-18T02:39:48.932Z,6.50
2022-10-18T02:42:18.089Z,6.57
2022-10-18T02:44:47.000Z,6.00
2022-10-18T02:47:15.084Z,6.07
2022-10-18T02:49:42.732Z,6.07
2022-10-18T02:52:10.522Z,5.90
2022-10-18T02:54:38.248Z,5.83
2022-10-18T02:57:05.843Z,6.00
2022-10-18T02:59:34.941Z,6.57
2022-10-18T03:02:02.524Z,6.67
2022-10-18T03:04:30.303Z,6.77
2022-10-18T03:06:58.052Z,6.60
2022-10-18T03:09:25.645Z,6.57
2022-10-18T03:11:53.279Z,5.93
2022-10-18T03:14:20.837Z,5.73
2022-10-18T03:16:50.066Z,6.60
2022-10-18T03:19:18.721Z,6.23
2022-10-18T03:21:46.309Z,6.13
2022-10-18T03:24:14.105Z,6.67
2022-10-18T03:26:41.689Z,5.97
2022-10-18T03:29:10.503Z,6.93
2022-10-18T03:31:38.162Z,6.37
2022-10-18T03:34:07.301Z,7.10
2022-10-18T03:36:35.025Z,6.67
2022-10-18T03:39:02.711Z,6.37
2022-10-18T03:41:30.303Z,6.73
2022-10-18T03:43:58.033Z,6.07
2022-10-18T03:46:25.733Z,5.83
2022-10-18T03:48:53.461Z,6.23
2022-10-18T03:51:22.389Z,6.07
2022-10-18T03:53:51.078Z,5.87
2022-10-18T03:56:18.739Z,6.17
2022-10-18T03:58:46.525Z,6.83
2022-10-18T04:01:14.126Z,6.40
2022-10-18T04:03:41.939Z,6.63
2022-10-18T04:06:32.861Z,6.57
2022-10-18T04:09:04.163Z,6.57
2022-10-18T04:11:34.570Z,6.17
2022-10-18T04:14:02.215Z,6.13
2022-10-18T04:16:29.825Z,5.30
2022-10-18T04:18:59.135Z,5.03
2022-10-18T04:21:26.795Z,4.90
2022-10-18T04:23:54.577Z,4.80
2022-10-18T04:26:23.862Z,5.07
2022-10-18T04:28:51.696Z,4.03
2022-10-18T04:31:19.302Z,4.80
2022-10-18T04:33:47.076Z,4.37
2022-10-18T04:36:14.656Z,4.47
2022-10-18T04:38:42.387Z,5.00
2022-10-18T04:41:10.175Z,4.37
2022-10-18T04:43:39.311Z,5.20
2022-10-18T04:46:07.199Z,4.97
2022-10-18T04:48:34.977Z,4.60
2022-10-18T04:51:02.520Z,4.97
2022-10-18T04:53:30.419Z,5.47
2022-10-18T04:55:58.003Z,5.60
2022-10-18T04:58:27.827Z,6.23
2022-10-18T05:00:56.968Z,6.20
2022-10-18T05:03:24.768Z,6.90
2022-10-18T05:06:07.255Z,6.13
2022-10-18T05:08:35.521Z,6.20
2022-10-18T05:11:03.390Z,6.73
2022-10-18T05:13:31.197Z,7.37
2022-10-18T05:16:00.711Z,6.77
2022-10-18T05:18:28.690Z,7.20
2022-10-18T05:20:56.431Z,8.53
2022-10-18T05:23:24.430Z,7.37
2022-10-18T05:25:52.046Z,7.73
2022-10-18T05:28:40.030Z,6.53
2022-10-18T05:31:09.875Z,7.17
2022-10-18T05:33:37.492Z,6.80
2022-10-18T05:36:06.592Z,11.60
2022-10-18T05:38:34.181Z,7.53
2022-10-18T05:41:05.303Z,7.30
2022-10-18T05:43:32.924Z,8.17
2022-10-18T05:46:01.134Z,8.47
2022-10-18T05:48:30.074Z,8.40
2022-10-18T05:50:59.063Z,13.50
2022-10-18T05:53:41.924Z,13.03
2022-10-18T05:56:11.737Z,10.37
2022-10-18T05:58:39.617Z,10.60
2022-10-18T06:01:07.686Z,10.87
2022-10-18T06:03:36.990Z,12.47
2022-10-18T06:06:05.682Z,11.07
2022-10-18T06:08:33.621Z,11.83
2022-10-18T06:11:01.523Z,12.37
2022-10-18T06:13:31.202Z,12.37
2022-10-18T06:16:00.479Z,14.80
2022-10-18T06:18:28.347Z,13.30
2022-10-18T06:20:59.321Z,14.97
2022-10-18T06:23:27.380Z,15.80
2022-10-18T06:26:03.095Z,18.63
2022-10-18T06:28:31.463Z,18.27
2022-10-18T06:31:00.092Z,17.87
2022-10-18T06:33:28.030Z,17.57
2022-10-18T06:35:57.471Z,17.87
2022-10-18T06:38:29.455Z,18.70
2022-10-18T06:40:57.717Z,19.37
2022-10-18T06:43:25.659Z,21.10
2022-10-18T06:45:53.480Z,22.00
2022-10-18T06:48:21.568Z,23.53
2022-10-18T06:50:53.731Z,23.33
2022-10-18T06:53:21.537Z,23.37
2022-10-18T06:55:50.854Z,23.43
2022-10-18T06:58:23.627Z,25.63
2022-10-18T07:01:02.551Z,26.27
2022-10-18T07:03:30.611Z,24.57
2022-10-18T07:06:02.751Z,24.43
2022-10-18T07:08:31.307Z,25.93
2022-10-18T07:11:00.689Z,28.80
2022-10-18T07:13:32.810Z,29.00
2022-10-18T07:16:05.590Z,26.77
2022-10-18T07:18:34.767Z,26.97
2022-10-18T07:22:13.448Z,29.87
2022-10-18T07:43:04.670Z,28.57
2022-10-18T08:24:47.459Z,29.73
2022-10-18T08:27:15.912Z,30.10
2022-10-18T08:30:09.959Z,30.70
2022-10-18T08:32:40.712Z,29.77
2022-10-18T08:35:11.338Z,30.83
2022-10-18T08:37:45.448Z,28.93
2022-10-18T08:40:15.909Z,30.70
2022-10-18T08:42:58.970Z,30.97
2022-10-18T08:45:37.719Z,30.33
2022-10-18T08:48:09.434Z,30.83
2022-10-18T08:50:38.695Z,30.57
2022-10-18T08:53:11.216Z,29.20
2022-10-18T08:55:42.105Z,31.57
2022-10-18T08:58:16.838Z,30.27
2022-10-18T09:00:47.393Z,32.13
2022-10-18T09:03:24.830Z,29.80
2022-10-18T09:05:53.217Z,31.07
2022-10-18T09:08:46.998Z,30.40
2022-10-18T09:11:28.097Z,30.50
2022-10-18T09:14:29.377Z,29.80
2022-10-18T09:17:01.422Z,31.37
2022-10-18T09:19:36.938Z,31.80
2022-10-18T09:22:09.675Z,36.03
2022-10-18T09:24:40.187Z,30.73
2022-10-18T09:27:15.611Z,29.30
2022-10-18T09:30:19.210Z,29.20
2022-10-18T09:32:51.611Z,29.30
2022-10-18T09:35:21.593Z,28.37
2022-10-18T09:37:49.467Z,28.93
2022-10-18T09:40:19.206Z,28.57
2022-10-18T09:42:53.989Z,29.03
2022-10-18T09:45:25.965Z,28.53
2022-10-18T09:47:58.553Z,27.90
2022-10-18T09:50:27.454Z,27.37
2022-10-18T09:53:17.433Z,28.23
2022-10-18T09:56:10.400Z,28.03
2022-10-18T09:58:46.576Z,31.40
2022-10-18T10:02:06.730Z,28.70
2022-10-18T10:05:33.290Z,29.07
2022-10-18T10:11:57.901Z,25.83
2022-10-18T10:18:02.823Z,25.07
2022-10-18T10:20:38.214Z,25.80
2022-10-18T10:23:07.584Z,24.73
2022-10-18T10:25:38.170Z,23.95
2022-10-18T10:28:07.841Z,24.23
2022-10-18T10:33:39.896Z,24.13
2022-10-18T10:50:35.184Z,26.55
2022-10-18T10:53:02.811Z,25.38
2022-10-18T10:55:36.726Z,25.42
2022-10-18T10:58:04.585Z,25.65
2022-10-18T11:00:40.593Z,24.20
2022-10-18T11:03:54.823Z,24.85
2022-10-18T11:07:44.800Z,23.92
2022-10-18T11:50:09.259Z,24.05
2022-10-18T11:53:23.258Z,23.17
2022-10-18T11:56:18.703Z,24.02
2022-10-18T11:59:25.175Z,26.92
2022-10-18T12:02:10.538Z,23.60
2022-10-18T12:05:05.375Z,23.85
2022-10-18T12:08:00.055Z,25.50
2022-10-18T12:10:53.049Z,26.77
2022-10-18T12:16:51.549Z,26.38
2022-10-18T12:19:25.469Z,24.83
2022-10-18T12:22:24.609Z,24.88
2022-10-18T12:24:54.327Z,25.00
2022-10-18T12:27:37.096Z,24.42
2022-10-18T12:30:15.276Z,22.83
2022-10-18T12:33:03.406Z,23.70
2022-10-18T12:35:46.507Z,24.20
2022-10-18T12:38:34.408Z,25.20
2022-10-18T12:41:03.449Z,25.65
2022-10-18T12:43:34.013Z,26.50
2022-10-18T12:46:02.290Z,27.63
2022-10-18T12:48:32.623Z,26.42
2022-10-18T12:51:53.513Z,26.35
2022-10-18T12:54:23.369Z,26.23
2022-10-18T12:56:52.537Z,26.67
2022-10-18T13:00:00.178Z,27.75
2022-10-18T13:02:36.774Z,28.05
2022-10-18T13:05:48.765Z,28.27
2022-10-18T13:08:43.232Z,25.58
2022-10-18T13:11:36.673Z,25.15
2022-10-18T13:14:38.740Z,23.27
2022-10-18T14:59:35.224Z,10.48
2022-10-18T15:02:08.821Z,8.70
2022-10-18T15:04:37.163Z,8.60
2022-10-18T15:07:06.344Z,9.27
2022-10-18T15:09:35.807Z,8.18
2022-10-18T15:12:04.452Z,9.00
2022-10-18T15:14:35.919Z,7.72
2022-10-18T15:17:05.007Z,7.75
2022-10-18T15:19:35.383Z,7.15
2022-10-18T15:22:30.631Z,7.00
2022-10-18T15:25:14.751Z,6.65
2022-10-18T15:27:44.856Z,6.60
2022-10-18T15:30:22.899Z,6.13
2022-10-18T15:32:52.315Z,6.50
2022-10-18T15:35:25.940Z,6.03
2022-10-18T15:37:54.119Z,5.95
2022-10-18T15:40:45.597Z,5.88
2022-10-18T15:43:34.881Z,5.88
2022-10-18T15:46:06.521Z,6.20
2022-10-18T15:48:36.241Z,7.65
2022-10-18T15:51:05.709Z,5.93
2022-10-18T15:53:42.620Z,4.83
2022-10-18T15:56:27.726Z,4.90
2022-10-18T15:58:56.904Z,4.75
2022-10-18T16:01:36.818Z,4.73
2022-10-18T16:04:14.907Z,4.73
2022-10-18T16:06:42.517Z,4.80
2022-10-18T16:09:13.437Z,4.63
2022-10-18T16:11:41.003Z,5.00
2022-10-18T16:14:08.727Z,4.90
2022-10-18T16:16:38.460Z,4.77
2022-10-18T16:19:07.227Z,5.03
2022-10-18T16:21:36.694Z,5.63
2022-10-18T16:24:05.594Z,5.10
2022-10-18T16:26:34.026Z,5.43
2022-10-18T16:29:04.750Z,5.60
2022-10-18T16:31:34.351Z,5.00
2022-10-18T16:34:04.089Z,5.10
2022-10-18T16:36:33.095Z,4.43
2022-10-18T16:39:02.856Z,4.83
2022-10-18T16:41:30.486Z,4.77
2022-10-18T16:43:58.108Z,4.83
2022-10-18T16:46:27.595Z,5.50
2022-10-18T16:48:56.028Z,5.53
2022-10-18T16:51:30.663Z,5.40
2022-10-18T16:57:26.479Z,5.97
2022-10-18T17:00:04.493Z,6.13
2022-10-18T17:02:58.372Z,5.83
2022-10-18T17:08:21.708Z,4.97
2022-10-18T17:10:49.953Z,6.03
2022-10-18T17:13:17.750Z,4.93
2022-10-18T17:15:45.777Z,7.00
2022-10-18T17:18:15.072Z,5.90
2022-10-18T17:20:42.884Z,5.90
2022-10-18T17:23:16.431Z,5.83
2022-10-18T17:25:57.527Z,5.27
2022-10-18T17:28:32.445Z,5.60
2022-10-18T17:31:00.521Z,4.90
2022-10-18T17:33:28.285Z,6.10
2022-10-18T17:35:56.003Z,6.33
2022-10-18T17:38:25.537Z,6.00
2022-10-18T17:40:54.633Z,6.47
2022-10-18T17:43:22.403Z,6.67
2022-10-18T17:45:51.052Z,4.83
2022-10-18T17:48:18.940Z,6.07
2022-10-18T17:50:46.816Z,6.33
2022-10-18T17:53:16.655Z,7.67
2022-10-18T17:55:45.985Z,6.90
2022-10-18T17:58:13.828Z,8.17
2022-10-18T18:00:42.844Z,6.07
2022-10-18T18:03:10.799Z,6.03
2022-10-18T18:05:38.814Z,4.40
2022-10-18T18:08:07.090Z,4.77
2022-10-18T18:10:35.091Z,4.73
2022-10-18T18:13:04.472Z,4.60
2022-10-18T18:15:32.281Z,4.73
2022-10-18T18:18:00.207Z,5.97
2022-10-18T18:20:28.002Z,5.07
2022-10-18T18:22:55.734Z,5.13
2022-10-18T18:25:23.888Z,5.00
2022-10-18T18:27:51.634Z,5.80
2022-10-18T18:30:21.835Z,5.63
2022-10-18T18:32:49.857Z,5.20
2022-10-18T18:35:17.625Z,5.17
2022-10-18T18:37:45.364Z,5.23
2022-10-18T18:40:13.213Z,5.83
2022-10-18T18:42:41.191Z,5.27
2022-10-18T18:45:09.258Z,5.93
2022-10-18T18:47:38.450Z,5.50
2022-10-18T18:50:06.871Z,6.00
2022-10-18T18:52:35.014Z,6.77
2022-10-18T18:55:03.289Z,4.90
2022-10-18T18:57:31.568Z,4.33
2022-10-18T18:59:59.875Z,4.80
2022-10-18T19:02:27.646Z,5.00
2022-10-18T19:04:57.097Z,5.60
2022-10-18T19:07:25.213Z,5.77
2022-10-18T19:09:53.034Z,5.83
2022-10-18T19:12:21.532Z,5.03
2022-10-18T19:14:49.467Z,5.50
2022-10-18T19:17:17.569Z,5.50
2022-10-18T19:19:45.728Z,6.23
2022-10-18T19:22:22.952Z,6.67
2022-10-18T19:24:50.882Z,6.23
2022-10-18T19:27:18.724Z,6.50
2022-10-18T19:29:48.681Z,6.67
2022-10-18T19:32:20.980Z,7.87
2022-10-18T19:34:48.934Z,6.60
2022-10-18T19:37:17.082Z,8.00
2022-10-18T19:39:46.691Z,8.63
2022-10-18T19:42:17.478Z,5.37
2022-10-18T19:44:49.156Z,7.43
2022-10-18T19:53:38.794Z,14.07
2022-10-18T19:56:12.066Z,8.40
2022-10-18T19:58:39.868Z,8.10
2022-10-18T20:01:07.755Z,6.50
2022-10-18T20:03:35.680Z,5.70
2022-10-18T20:06:05.321Z,6.30
2022-10-18T20:08:33.972Z,9.00
2022-10-18T20:11:03.237Z,6.50
2022-10-18T20:13:32.455Z,6.83
2022-10-18T20:16:00.524Z,7.83
2022-10-18T20:18:28.502Z,6.83
2022-10-18T20:20:56.295Z,6.87
2022-10-18T20:23:24.198Z,7.17
2022-10-18T20:25:58.965Z,7.20
2022-10-18T20:28:27.966Z,8.87
2022-10-18T20:31:06.937Z,9.10
2022-10-18T20:33:35.055Z,8.73
2022-10-18T20:36:09.506Z,8.60
2022-10-18T20:38:37.880Z,7.37
2022-10-18T20:41:09.028Z,6.77
2022-10-18T20:43:36.841Z,6.00
2022-10-18T20:46:07.223Z,7.03
2022-10-18T20:48:35.121Z,6.73
2022-10-18T20:51:05.779Z,7.50
2022-10-18T20:53:33.763Z,8.57
2022-10-18T20:56:04.850Z,8.67
2022-10-18T20:58:32.829Z,8.07
2022-10-18T21:01:08.357Z,7.70
2022-10-18T21:03:38.040Z,8.60
2022-10-18T21:06:13.195Z,8.53
2022-10-18T21:08:41.049Z,8.97
2022-10-18T21:11:09.291Z,8.27
2022-10-18T21:13:37.256Z,7.77
2022-10-18T21:16:07.112Z,7.83
2022-10-18T21:18:35.568Z,7.73
2022-10-18T21:21:10.714Z,8.13
2022-10-18T21:23:38.660Z,7.77
2022-10-18T21:26:06.701Z,7.77
2022-10-18T21:28:34.551Z,7.77
2022-10-18T21:31:17.234Z,8.03
2022-10-18T21:33:45.197Z,8.80
2022-10-18T21:36:13.420Z,8.83
2022-10-18T21:38:41.407Z,8.77
2022-10-18T21:41:10.493Z,9.80
2022-10-18T21:43:39.969Z,9.53
2022-10-18T21:46:08.172Z,10.90
2022-10-18T21:48:37.415Z,10.97
2022-10-18T21:51:15.105Z,11.50
2022-10-18T21:53:45.931Z,10.63
2022-10-18T21:56:14.451Z,10.77
2022-10-18T21:58:42.151Z,11.13
2022-10-18T22:01:10.390Z,10.73
2022-10-18T22:03:39.544Z,11.17
2022-10-18T22:06:09.346Z,11.80
2022-10-18T22:08:37.261Z,12.23
2022-10-18T22:11:05.058Z,12.20
2022-10-18T22:13:32.915Z,14.57
2022-10-18T22:16:01.889Z,12.97
2022-10-18T22:18:29.778Z,11.90
2022-10-18T22:21:00.054Z,12.63
2022-10-18T22:23:32.072Z,12.43
2022-10-18T22:26:03.322Z,11.67
2022-10-18T22:28:30.950Z,14.23
2022-10-18T22:30:59.045Z,13.43
2022-10-18T22:33:26.614Z,13.73
2022-10-18T22:35:54.499Z,12.83
2022-10-18T22:38:24.137Z,12.63
2022-10-18T22:40:52.129Z,11.73
2022-10-18T22:43:20.105Z,10.97
2022-10-18T22:45:47.932Z,12.10
2022-10-18T22:48:15.542Z,11.13
2022-10-18T22:57:11.589Z,10.47
2022-10-18T23:00:42.646Z,11.13
2022-10-18T23:07:20.991Z,11.30
2022-10-18T23:14:15.311Z,10.63
2022-10-18T23:17:47.965Z,10.37
2022-10-18T23:24:26.705Z,11.03
2022-10-18T23:26:55.543Z,10.80
2022-10-18T23:29:24.508Z,11.37
2022-10-18T23:31:52.161Z,11.07
2022-10-18T23:34:19.723Z,10.60
2022-10-18T23:36:47.432Z,10.50
2022-10-18T23:39:15.037Z,9.63
2022-10-18T23:41:43.756Z,10.43
2022-10-18T23:44:11.438Z,9.33
2022-10-18T23:46:42.459Z,9.37
2022-10-18T23:49:10.169Z,8.63
2022-10-18T23:51:37.716Z,9.30
2022-10-18T23:54:05.303Z,9.53
2022-10-18T23:56:32.962Z,9.37
2022-10-18T23:59:00.655Z,9.53
